createdAt,value
2019-01-09T00:00:04.460Z,2.18
2019-01-09T00:00:08.780Z,2.18
2019-01-09T00:00:13.080Z,2.19
2019-01-09T00:00:17.377Z,2.19
2019-01-09T00:00:21.677Z,2.18
2019-01-09T00:00:25.970Z,2.19
2019-01-09T00:00:30.263Z,2.19
2019-01-09T00:00:34.566Z,2.19
2019-01-09T00:00:38.853Z,2.2
2019-01-09T00:00:43.150Z,2.19
2019-01-09T00:00:47.465Z,2.18
2019-01-09T00:00:51.773Z,2.2
2019-01-09T00:00:56.072Z,2.2
2019-01-09T00:01:00.362Z,2.2
2019-01-09T00:01:04.652Z,2.2
2019-01-09T00:01:08.940Z,2.21
2019-01-09T00:01:13.235Z,2.21
2019-01-09T00:01:17.432Z,2.21
2019-01-09T00:01:21.724Z,2.21
2019-01-09T00:01:26.021Z,2.22
2019-01-09T00:01:30.319Z,2.22
2019-01-09T00:01:34.513Z,2.22
2019-01-09T00:01:38.823Z,2.22
2019-01-09T00:01:43.128Z,2.22
2019-01-09T00:01:47.423Z,2.23
2019-01-09T00:01:51.718Z,2.22
2019-01-09T00:01:55.947Z,2.22
2019-01-09T00:02:00.241Z,2.23
2019-01-09T00:02:04.638Z,2.23
2019-01-09T00:02:08.947Z,2.24
2019-01-09T00:02:13.239Z,2.23
2019-01-09T00:02:17.345Z,2.24
2019-01-09T00:02:21.550Z,2.24
2019-01-09T00:02:25.874Z,2.24
2019-01-09T00:02:30.164Z,2.24
2019-01-09T00:02:34.457Z,2.25
2019-01-09T00:02:38.745Z,2.25
2019-01-09T00:02:43.044Z,2.24
2019-01-09T00:02:47.246Z,2.25
2019-01-09T00:02:51.444Z,2.24
2019-01-09T00:02:55.733Z,2.25
2019-01-09T00:03:00.032Z,2.24
2019-01-09T00:03:04.324Z,2.24
2019-01-09T00:03:08.624Z,2.24
2019-01-09T00:03:12.927Z,2.25
2019-01-09T00:03:17.141Z,2.25
2019-01-09T00:03:21.453Z,2.24
2019-01-09T00:03:25.642Z,2.25
2019-01-09T00:03:29.940Z,2.24
2019-01-09T00:03:34.137Z,2.25
2019-01-09T00:03:38.515Z,2.24
2019-01-09T00:03:42.841Z,2.23
2019-01-09T00:03:47.221Z,2.24
2019-01-09T00:03:51.511Z,2.24
2019-01-09T00:03:55.812Z,2.24
2019-01-09T00:04:00.183Z,2.25
2019-01-09T00:04:04.475Z,2.25
2019-01-09T00:04:08.773Z,2.24
2019-01-09T00:04:13.066Z,2.25
2019-01-09T00:04:17.261Z,2.24
2019-01-09T00:04:21.551Z,2.24
2019-01-09T00:04:25.849Z,2.24
2019-01-09T00:04:30.150Z,2.24
2019-01-09T00:04:34.451Z,2.25
2019-01-09T00:04:38.747Z,2.24
2019-01-09T00:04:43.037Z,2.24
2019-01-09T00:04:47.136Z,2.25
2019-01-09T00:04:51.338Z,2.25
2019-01-09T00:04:55.342Z,2.25
2019-01-09T00:04:59.637Z,2.24
2019-01-09T00:05:03.943Z,2.24
2019-01-09T00:05:08.234Z,2.24
2019-01-09T00:05:12.520Z,2.25
2019-01-09T00:05:16.817Z,2.24
2019-01-09T00:05:29.794Z,2.23
2019-01-09T00:05:33.996Z,2.24
2019-01-09T00:05:38.325Z,2.24
2019-01-09T00:05:42.428Z,2.23
2019-01-09T00:05:46.626Z,2.23
2019-01-09T00:05:50.828Z,2.23
2019-01-09T00:05:55.127Z,2.22
2019-01-09T00:05:59.424Z,2.22
2019-01-09T00:06:03.713Z,2.23
2019-01-09T00:06:08.001Z,2.21
2019-01-09T00:06:12.315Z,2.22
2019-01-09T00:06:16.601Z,2.22
2019-01-09T00:06:20.888Z,2.22
2019-01-09T00:06:25.181Z,2.23
2019-01-09T00:06:29.471Z,2.22
2019-01-09T00:06:33.829Z,2.22
2019-01-09T00:06:38.133Z,2.21
2019-01-09T00:06:42.433Z,2.21
2019-01-09T00:06:46.622Z,2.22
2019-01-09T00:06:50.822Z,2.22
2019-01-09T00:06:55.108Z,2.21
2019-01-09T00:06:59.402Z,2.22
2019-01-09T00:07:03.930Z,2.21
2019-01-09T00:07:08.223Z,2.22
2019-01-09T00:07:12.511Z,2.22
2019-01-09T00:07:16.871Z,2.21
2019-01-09T00:07:20.967Z,2.21
2019-01-09T00:07:25.071Z,2.22
2019-01-09T00:07:29.271Z,2.21
2019-01-09T00:07:33.570Z,2.22
2019-01-09T00:07:37.775Z,2.22
2019-01-09T00:07:42.073Z,2.22
2019-01-09T00:07:46.269Z,2.22
2019-01-09T00:07:50.471Z,2.21
2019-01-09T00:07:54.766Z,2.22
2019-01-09T00:07:59.067Z,2.22
2019-01-09T00:08:03.224Z,2.21
2019-01-09T00:08:07.514Z,2.23
2019-01-09T00:08:11.714Z,2.22
2019-01-09T00:08:15.815Z,2.22
2019-01-09T00:08:20.107Z,2.22
2019-01-09T00:08:24.409Z,2.23
2019-01-09T00:08:30.390Z,2.22
2019-01-09T00:08:34.809Z,2.23
2019-01-09T00:08:39.008Z,2.23
2019-01-09T00:08:43.303Z,2.23
2019-01-09T00:08:47.501Z,2.22
2019-01-09T00:08:51.791Z,2.23
2019-01-09T00:08:56.081Z,2.23
2019-01-09T00:09:00.178Z,2.24
2019-01-09T00:09:04.479Z,2.23
2019-01-09T00:09:08.777Z,2.23
2019-01-09T00:09:12.980Z,2.24
2019-01-09T00:09:17.272Z,2.24
2019-01-09T00:09:21.569Z,2.24
2019-01-09T00:09:25.853Z,2.25
2019-01-09T00:09:29.955Z,2.24
2019-01-09T00:09:34.250Z,2.24
2019-01-09T00:09:38.547Z,2.24
2019-01-09T00:09:42.744Z,2.24
2019-01-09T00:09:47.036Z,2.25
2019-01-09T00:09:51.338Z,2.24
2019-01-09T00:09:55.637Z,2.25
2019-01-09T00:09:59.837Z,2.24
2019-01-09T00:10:04.141Z,2.24
2019-01-09T00:10:08.352Z,2.25
2019-01-09T00:10:12.544Z,2.25
2019-01-09T00:10:16.797Z,2.26
2019-01-09T00:10:21.101Z,2.25
2019-01-09T00:10:25.297Z,2.26
2019-01-09T00:10:29.610Z,2.26
2019-01-09T00:10:33.907Z,2.25
2019-01-09T00:10:38.202Z,2.25
2019-01-09T00:10:42.495Z,2.25
2019-01-09T00:10:46.786Z,2.25
2019-01-09T00:10:50.990Z,2.25
2019-01-09T00:10:55.194Z,2.26
2019-01-09T00:10:59.492Z,2.26
2019-01-09T00:11:03.809Z,2.26
2019-01-09T00:11:08.164Z,2.26
2019-01-09T00:11:12.365Z,2.25
2019-01-09T00:11:16.664Z,2.26
2019-01-09T00:11:20.859Z,2.27
2019-01-09T00:11:25.239Z,2.27
2019-01-09T00:11:29.338Z,2.27
2019-01-09T00:11:33.538Z,2.28
2019-01-09T00:11:37.732Z,2.27
2019-01-09T00:11:42.035Z,2.28
2019-01-09T00:11:46.335Z,2.28
2019-01-09T00:11:50.630Z,2.28
2019-01-09T00:11:54.836Z,2.29
2019-01-09T00:11:59.129Z,2.29
2019-01-09T00:12:03.482Z,2.29
2019-01-09T00:12:07.680Z,2.29
2019-01-09T00:12:11.977Z,2.29
2019-01-09T00:12:16.271Z,2.3
2019-01-09T00:12:20.567Z,2.29
2019-01-09T00:12:24.863Z,2.29
2019-01-09T00:12:29.155Z,2.3
2019-01-09T00:12:33.449Z,2.29
2019-01-09T00:12:37.657Z,2.29
2019-01-09T00:12:41.849Z,2.3
2019-01-09T00:12:46.149Z,2.29
2019-01-09T00:12:50.454Z,2.29
2019-01-09T00:12:54.754Z,2.29
2019-01-09T00:12:59.044Z,2.29
2019-01-09T00:13:03.346Z,2.28
2019-01-09T00:13:07.639Z,2.29
2019-01-09T00:13:11.832Z,2.29
2019-01-09T00:13:16.123Z,2.28
2019-01-09T00:13:20.424Z,2.28
2019-01-09T00:13:24.727Z,2.29
2019-01-09T00:13:28.921Z,2.29
2019-01-09T00:13:33.310Z,2.28
2019-01-09T00:13:37.604Z,2.28
2019-01-09T00:13:41.900Z,2.28
2019-01-09T00:13:46.191Z,2.29
2019-01-09T00:13:50.483Z,2.28
2019-01-09T00:13:54.771Z,2.3
2019-01-09T00:13:59.065Z,2.29
2019-01-09T00:14:03.366Z,2.29
2019-01-09T00:14:07.656Z,2.28
2019-01-09T00:14:11.960Z,2.29
2019-01-09T00:14:16.252Z,2.3
2019-01-09T00:14:20.455Z,2.3
2019-01-09T00:14:24.756Z,2.31
2019-01-09T00:14:29.054Z,2.31
2019-01-09T00:14:33.252Z,2.31
2019-01-09T00:14:37.448Z,2.29
2019-01-09T00:14:41.640Z,2.3
2019-01-09T00:14:45.836Z,2.29
2019-01-09T00:14:50.031Z,2.31
2019-01-09T00:14:54.321Z,2.3
2019-01-09T00:14:58.516Z,2.3
2019-01-09T00:15:04.386Z,2.3
2019-01-09T00:15:08.777Z,2.3
2019-01-09T00:15:13.078Z,2.29
2019-01-09T00:15:17.271Z,2.29
2019-01-09T00:15:21.564Z,2.28
2019-01-09T00:15:25.755Z,2.29
2019-01-09T00:15:30.055Z,2.29
2019-01-09T00:15:34.350Z,2.28
2019-01-09T00:15:38.646Z,2.29
2019-01-09T00:15:42.938Z,2.29
2019-01-09T00:15:47.132Z,2.29
2019-01-09T00:15:51.334Z,2.28
2019-01-09T00:15:55.530Z,2.29
2019-01-09T00:15:59.829Z,2.29
2019-01-09T00:16:04.146Z,2.28
2019-01-09T00:16:08.437Z,2.28
2019-01-09T00:16:12.728Z,2.28
2019-01-09T00:16:16.951Z,2.28
2019-01-09T00:16:21.145Z,2.28
2019-01-09T00:16:25.444Z,2.28
2019-01-09T00:16:29.743Z,2.29
2019-01-09T00:16:34.061Z,2.28
2019-01-09T00:16:38.357Z,2.29
2019-01-09T00:16:42.650Z,2.29
2019-01-09T00:16:46.956Z,2.3
2019-01-09T00:16:51.252Z,2.29
2019-01-09T00:16:55.552Z,2.3
2019-01-09T00:16:59.846Z,2.29
2019-01-09T00:17:04.145Z,2.29
2019-01-09T00:17:08.529Z,2.29
2019-01-09T00:17:12.817Z,2.31
2019-01-09T00:17:17.100Z,2.3
2019-01-09T00:17:21.296Z,2.3
2019-01-09T00:17:25.592Z,2.3
2019-01-09T00:17:29.890Z,2.3
2019-01-09T00:17:34.186Z,2.3
2019-01-09T00:17:38.475Z,2.29
2019-01-09T00:17:42.768Z,2.31
2019-01-09T00:17:47.131Z,2.31
2019-01-09T00:17:51.423Z,2.31
2019-01-09T00:17:55.715Z,2.31
2019-01-09T00:18:00.023Z,2.3
2019-01-09T00:18:04.350Z,2.31
2019-01-09T00:18:08.638Z,2.31
2019-01-09T00:18:12.929Z,2.31
2019-01-09T00:18:17.125Z,2.31
2019-01-09T00:18:21.331Z,2.3
2019-01-09T00:18:25.620Z,2.31
2019-01-09T00:18:29.916Z,2.31
2019-01-09T00:18:34.208Z,2.31
2019-01-09T00:18:38.508Z,2.31
2019-01-09T00:18:42.878Z,2.31
2019-01-09T00:18:47.196Z,2.31
2019-01-09T00:18:51.495Z,2.31
2019-01-09T00:18:55.785Z,2.3
2019-01-09T00:19:00.073Z,2.31
2019-01-09T00:19:04.422Z,2.3
2019-01-09T00:19:08.711Z,2.31
2019-01-09T00:19:12.803Z,2.31
2019-01-09T00:19:17.097Z,2.3
2019-01-09T00:19:21.387Z,2.31
2019-01-09T00:19:25.674Z,2.31
2019-01-09T00:19:29.961Z,2.31
2019-01-09T00:19:34.256Z,2.32
2019-01-09T00:19:38.451Z,2.32
2019-01-09T00:19:42.837Z,2.32
2019-01-09T00:19:47.125Z,2.32
2019-01-09T00:19:51.425Z,2.32
2019-01-09T00:19:55.731Z,2.33
2019-01-09T00:20:00.027Z,2.33
2019-01-09T00:20:04.321Z,2.34
2019-01-09T00:20:08.629Z,2.33
2019-01-09T00:20:12.923Z,2.33
2019-01-09T00:20:17.120Z,2.34
2019-01-09T00:20:21.414Z,2.33
2019-01-09T00:20:25.722Z,2.33
2019-01-09T00:20:30.017Z,2.34
2019-01-09T00:20:34.313Z,2.34
2019-01-09T00:20:38.414Z,2.34
2019-01-09T00:20:42.707Z,2.34
2019-01-09T00:20:46.998Z,2.34
2019-01-09T00:20:51.294Z,2.33
2019-01-09T00:20:55.580Z,2.34
2019-01-09T00:20:59.785Z,2.33
2019-01-09T00:21:04.133Z,2.34
2019-01-09T00:21:08.333Z,2.33
2019-01-09T00:21:12.626Z,2.34
2019-01-09T00:21:16.920Z,2.34
2019-01-09T00:21:21.245Z,2.34
2019-01-09T00:21:25.536Z,2.34
2019-01-09T00:21:29.799Z,2.35
2019-01-09T00:21:34.090Z,2.35
2019-01-09T00:21:38.381Z,2.35
2019-01-09T00:21:42.577Z,2.35
2019-01-09T00:21:46.877Z,2.35
2019-01-09T00:21:51.167Z,2.35
2019-01-09T00:21:55.468Z,2.34
2019-01-09T00:21:59.758Z,2.36
2019-01-09T00:22:04.135Z,2.36
2019-01-09T00:22:08.437Z,2.36
2019-01-09T00:22:12.728Z,2.36
2019-01-09T00:22:17.033Z,2.36
2019-01-09T00:22:21.330Z,2.35
2019-01-09T00:22:25.520Z,2.35
2019-01-09T00:22:29.805Z,2.36
2019-01-09T00:22:34.089Z,2.35
2019-01-09T00:22:38.380Z,2.35
2019-01-09T00:22:42.575Z,2.35
2019-01-09T00:22:46.869Z,2.36
2019-01-09T00:22:51.166Z,2.35
2019-01-09T00:22:55.459Z,2.35
2019-01-09T00:22:59.750Z,2.35
2019-01-09T00:23:04.046Z,2.35
2019-01-09T00:23:08.347Z,2.34
2019-01-09T00:23:12.635Z,2.33
2019-01-09T00:23:16.828Z,2.33
2019-01-09T00:23:21.119Z,2.33
2019-01-09T00:23:25.471Z,2.33
2019-01-09T00:23:29.760Z,2.33
2019-01-09T00:23:34.059Z,2.33
2019-01-09T00:23:38.357Z,2.33
2019-01-09T00:23:42.645Z,2.33
2019-01-09T00:23:46.954Z,2.33
2019-01-09T00:23:51.152Z,2.33
2019-01-09T00:23:55.444Z,2.33
2019-01-09T00:23:59.637Z,2.33
2019-01-09T00:24:03.980Z,2.35
2019-01-09T00:24:08.179Z,2.33
2019-01-09T00:24:12.375Z,2.34
2019-01-09T00:24:16.666Z,2.34
2019-01-09T00:24:20.957Z,2.34
2019-01-09T00:24:25.266Z,2.34
2019-01-09T00:24:29.658Z,2.35
2019-01-09T00:24:33.859Z,2.35
2019-01-09T00:24:38.159Z,2.34
2019-01-09T00:24:42.448Z,2.33
2019-01-09T00:24:46.744Z,2.35
2019-01-09T00:24:50.942Z,2.34
2019-01-09T00:24:55.140Z,2.34
2019-01-09T00:24:59.433Z,2.34
2019-01-09T00:25:03.769Z,2.34
2019-01-09T00:25:08.061Z,2.34
2019-01-09T00:25:12.367Z,2.33
2019-01-09T00:25:16.663Z,2.34
2019-01-09T00:25:20.864Z,2.34
2019-01-09T00:25:25.161Z,2.33
2019-01-09T00:25:29.361Z,2.34
2019-01-09T00:25:33.662Z,2.33
2019-01-09T00:25:37.957Z,2.33
2019-01-09T00:25:42.244Z,2.32
2019-01-09T00:25:46.544Z,2.32
2019-01-09T00:25:50.839Z,2.33
2019-01-09T00:25:55.132Z,2.32
2019-01-09T00:25:59.352Z,2.31
2019-01-09T00:26:03.651Z,2.31
2019-01-09T00:26:07.945Z,2.3
2019-01-09T00:26:12.144Z,2.31
2019-01-09T00:26:16.442Z,2.3
2019-01-09T00:26:20.741Z,2.3
2019-01-09T00:26:24.943Z,2.3
2019-01-09T00:26:29.235Z,2.29
2019-01-09T00:26:33.544Z,2.31
2019-01-09T00:26:37.743Z,2.29
2019-01-09T00:26:41.938Z,2.29
2019-01-09T00:26:46.321Z,2.29
2019-01-09T00:26:50.610Z,2.29
2019-01-09T00:26:57.040Z,2.28
2019-01-09T00:27:01.357Z,2.28
2019-01-09T00:27:05.555Z,2.29
2019-01-09T00:27:09.866Z,2.29
2019-01-09T00:27:14.166Z,2.29
2019-01-09T00:27:18.273Z,2.29
2019-01-09T00:27:22.481Z,2.29
2019-01-09T00:27:26.777Z,2.29
2019-01-09T00:27:31.073Z,2.29
2019-01-09T00:27:35.377Z,2.29
2019-01-09T00:27:39.585Z,2.29
2019-01-09T00:27:43.888Z,2.29
2019-01-09T00:27:48.187Z,2.28
2019-01-09T00:27:52.484Z,2.29
2019-01-09T00:27:56.783Z,2.28
2019-01-09T00:28:01.087Z,2.28
2019-01-09T00:28:05.204Z,2.29
2019-01-09T00:28:09.323Z,2.29
2019-01-09T00:28:13.616Z,2.28
2019-01-09T00:28:17.821Z,2.29
2019-01-09T00:28:22.024Z,2.27
2019-01-09T00:28:26.337Z,2.29
2019-01-09T00:28:30.643Z,2.28
2019-01-09T00:28:34.938Z,2.28
2019-01-09T00:28:39.228Z,2.27
2019-01-09T00:28:43.512Z,2.28
2019-01-09T00:28:47.815Z,2.27
2019-01-09T00:28:52.114Z,2.28
2019-01-09T00:28:56.308Z,2.28
2019-01-09T00:29:00.596Z,2.28
2019-01-09T00:29:04.886Z,2.28
2019-01-09T00:29:09.094Z,2.28
2019-01-09T00:29:13.414Z,2.27
2019-01-09T00:29:17.611Z,2.27
2019-01-09T00:29:21.804Z,2.27
2019-01-09T00:29:26.104Z,2.27
2019-01-09T00:29:30.394Z,2.28
2019-01-09T00:29:34.584Z,2.27
2019-01-09T00:29:38.899Z,2.27
2019-01-09T00:29:43.196Z,2.26
2019-01-09T00:29:47.491Z,2.25
2019-01-09T00:29:51.791Z,2.26
2019-01-09T00:29:55.888Z,2.25
2019-01-09T00:30:00.290Z,2.26
2019-01-09T00:30:04.605Z,2.24
2019-01-09T00:30:08.917Z,2.25
2019-01-09T00:30:13.216Z,2.24
2019-01-09T00:30:17.504Z,2.25
2019-01-09T00:30:21.698Z,2.24
2019-01-09T00:30:25.889Z,2.26
2019-01-09T00:30:29.985Z,2.25
2019-01-09T00:30:34.181Z,2.25
2019-01-09T00:30:38.372Z,2.25
2019-01-09T00:30:42.664Z,2.25
2019-01-09T00:30:46.956Z,2.25
2019-01-09T00:30:51.252Z,2.26
2019-01-09T00:30:55.551Z,2.25
2019-01-09T00:30:59.935Z,2.25
2019-01-09T00:31:04.224Z,2.26
2019-01-09T00:31:08.511Z,2.25
2019-01-09T00:31:12.797Z,2.25
2019-01-09T00:31:16.996Z,2.25
2019-01-09T00:31:21.292Z,2.25
2019-01-09T00:31:25.482Z,2.26
2019-01-09T00:31:29.774Z,2.26
2019-01-09T00:31:34.070Z,2.26
2019-01-09T00:31:38.358Z,2.25
2019-01-09T00:31:42.554Z,2.25
2019-01-09T00:31:46.862Z,2.26
2019-01-09T00:31:51.063Z,2.25
2019-01-09T00:31:55.353Z,2.25
2019-01-09T00:31:59.645Z,2.26
2019-01-09T00:32:03.948Z,2.26
2019-01-09T00:32:08.048Z,2.26
2019-01-09T00:32:12.349Z,2.27
2019-01-09T00:32:16.645Z,2.26
2019-01-09T00:32:20.929Z,2.27
2019-01-09T00:32:25.216Z,2.27
2019-01-09T00:32:29.411Z,2.27
2019-01-09T00:32:33.702Z,2.26
2019-01-09T00:32:37.994Z,2.27
2019-01-09T00:32:42.289Z,2.26
2019-01-09T00:32:46.481Z,2.27
2019-01-09T00:32:50.781Z,2.26
2019-01-09T00:32:55.080Z,2.27
2019-01-09T00:32:59.275Z,2.26
2019-01-09T00:33:03.771Z,2.27
2019-01-09T00:33:07.966Z,2.27
2019-01-09T00:33:12.157Z,2.26
2019-01-09T00:33:16.452Z,2.26
2019-01-09T00:33:20.755Z,2.27
2019-01-09T00:33:25.058Z,2.27
2019-01-09T00:33:29.347Z,2.27
2019-01-09T00:33:33.642Z,2.28
2019-01-09T00:33:37.931Z,2.28
2019-01-09T00:33:42.221Z,2.28
2019-01-09T00:33:46.411Z,2.28
2019-01-09T00:33:50.702Z,2.29
2019-01-09T00:33:55.002Z,2.29
2019-01-09T00:33:59.292Z,2.29
2019-01-09T00:34:03.598Z,2.29
2019-01-09T00:34:07.893Z,2.29
2019-01-09T00:34:12.188Z,2.29
2019-01-09T00:34:16.378Z,2.28
2019-01-09T00:34:20.568Z,2.29
2019-01-09T00:34:24.863Z,2.29
2019-01-09T00:34:29.070Z,2.29
2019-01-09T00:34:33.446Z,2.3
2019-01-09T00:34:37.742Z,2.29
2019-01-09T00:34:42.049Z,2.29
2019-01-09T00:34:46.342Z,2.29
2019-01-09T00:34:50.632Z,2.3
2019-01-09T00:34:54.921Z,2.31
2019-01-09T00:34:59.233Z,2.3
2019-01-09T00:35:03.533Z,2.31
2019-01-09T00:35:07.746Z,2.3
2019-01-09T00:35:12.037Z,2.3
2019-01-09T00:35:16.236Z,2.3
2019-01-09T00:35:20.531Z,2.29
2019-01-09T00:35:24.729Z,2.31
2019-01-09T00:35:37.854Z,2.3
2019-01-09T00:35:42.144Z,2.32
2019-01-09T00:35:46.359Z,2.31
2019-01-09T00:35:50.553Z,2.31
2019-01-09T00:35:54.863Z,2.31
2019-01-09T00:35:59.069Z,2.31
2019-01-09T00:36:03.361Z,2.31
2019-01-09T00:36:07.652Z,2.32
2019-01-09T00:36:11.844Z,2.32
2019-01-09T00:36:16.137Z,2.32
2019-01-09T00:36:20.329Z,2.33
2019-01-09T00:36:24.629Z,2.34
2019-01-09T00:36:28.923Z,2.33
2019-01-09T00:36:33.126Z,2.32
2019-01-09T00:36:37.320Z,2.34
2019-01-09T00:36:41.623Z,2.33
2019-01-09T00:36:45.917Z,2.33
2019-01-09T00:36:50.213Z,2.33
2019-01-09T00:36:54.505Z,2.34
2019-01-09T00:36:58.800Z,2.33
2019-01-09T00:37:03.093Z,2.33
2019-01-09T00:37:07.377Z,2.33
2019-01-09T00:37:11.666Z,2.33
2019-01-09T00:37:15.955Z,2.33
2019-01-09T00:37:20.247Z,2.34
2019-01-09T00:37:24.557Z,2.33
2019-01-09T00:37:28.654Z,2.33
2019-01-09T00:37:33.027Z,2.33
2019-01-09T00:37:37.319Z,2.33
2019-01-09T00:37:41.621Z,2.34
2019-01-09T00:37:45.913Z,2.35
2019-01-09T00:37:50.203Z,2.34
2019-01-09T00:37:54.492Z,2.33
2019-01-09T00:37:58.782Z,2.34
2019-01-09T00:38:03.084Z,2.34
2019-01-09T00:38:07.388Z,2.34
2019-01-09T00:38:11.677Z,2.36
2019-01-09T00:38:15.976Z,2.35
2019-01-09T00:38:20.298Z,2.36
2019-01-09T00:38:24.495Z,2.35
2019-01-09T00:38:28.783Z,2.36
2019-01-09T00:38:33.072Z,2.36
2019-01-09T00:38:37.332Z,2.35
2019-01-09T00:38:43.626Z,2.37
2019-01-09T00:38:47.920Z,2.36
2019-01-09T00:38:52.241Z,2.36
2019-01-09T00:38:56.543Z,2.36
2019-01-09T00:39:00.838Z,2.36
2019-01-09T00:39:05.136Z,2.35
2019-01-09T00:39:09.429Z,2.36
2019-01-09T00:39:13.625Z,2.35
2019-01-09T00:39:17.915Z,2.36
2019-01-09T00:39:22.203Z,2.37
2019-01-09T00:39:26.500Z,2.35
2019-01-09T00:39:30.602Z,2.36
2019-01-09T00:39:34.892Z,2.37
2019-01-09T00:39:39.184Z,2.37
2019-01-09T00:39:43.477Z,2.37
2019-01-09T00:39:47.777Z,2.36
2019-01-09T00:39:52.087Z,2.37
2019-01-09T00:39:56.386Z,2.37
2019-01-09T00:40:00.677Z,2.38
2019-01-09T00:40:04.973Z,2.37
2019-01-09T00:40:09.268Z,2.37
2019-01-09T00:40:13.559Z,2.37
2019-01-09T00:40:17.849Z,2.36
2019-01-09T00:40:22.141Z,2.37
2019-01-09T00:40:26.431Z,2.37
2019-01-09T00:40:30.732Z,2.37
2019-01-09T00:40:34.936Z,2.38
2019-01-09T00:40:39.130Z,2.38
2019-01-09T00:40:43.426Z,2.38
2019-01-09T00:40:47.654Z,2.38
2019-01-09T00:40:51.942Z,2.38
2019-01-09T00:40:56.241Z,2.38
2019-01-09T00:41:00.546Z,2.37
2019-01-09T00:41:04.839Z,2.38
2019-01-09T00:41:09.039Z,2.38
2019-01-09T00:41:13.327Z,2.38
2019-01-09T00:41:17.521Z,2.39
2019-01-09T00:41:21.807Z,2.38
2019-01-09T00:41:26.011Z,2.4
2019-01-09T00:41:30.305Z,2.38
2019-01-09T00:41:34.598Z,2.38
2019-01-09T00:41:38.786Z,2.38
2019-01-09T00:41:42.982Z,2.39
2019-01-09T00:41:47.273Z,2.38
2019-01-09T00:41:51.564Z,2.39
2019-01-09T00:41:55.852Z,2.39
2019-01-09T00:42:00.150Z,2.39
2019-01-09T00:42:04.608Z,2.39
2019-01-09T00:42:08.899Z,2.4
2019-01-09T00:42:13.185Z,2.4
2019-01-09T00:42:17.479Z,2.4
2019-01-09T00:42:21.773Z,2.39
2019-01-09T00:42:26.171Z,2.4
2019-01-09T00:42:30.457Z,2.4
2019-01-09T00:42:34.748Z,2.4
2019-01-09T00:42:38.746Z,2.4
2019-01-09T00:42:42.941Z,2.4
2019-01-09T00:42:47.157Z,2.4
2019-01-09T00:42:51.364Z,2.4
2019-01-09T00:42:55.571Z,2.4
2019-01-09T00:42:59.768Z,2.41
2019-01-09T00:43:04.074Z,2.4
2019-01-09T00:43:08.287Z,2.41
2019-01-09T00:43:12.487Z,2.4
2019-01-09T00:43:16.591Z,2.4
2019-01-09T00:43:20.890Z,2.4
2019-01-09T00:43:25.179Z,2.4
2019-01-09T00:43:29.375Z,2.4
2019-01-09T00:43:33.574Z,2.4
2019-01-09T00:43:37.685Z,2.41
2019-01-09T00:43:41.970Z,2.4
2019-01-09T00:43:46.070Z,2.4
2019-01-09T00:43:50.360Z,2.41
2019-01-09T00:43:54.660Z,2.41
2019-01-09T00:43:58.952Z,2.41
2019-01-09T00:44:03.244Z,2.41
2019-01-09T00:44:07.542Z,2.4
2019-01-09T00:44:11.835Z,2.4
2019-01-09T00:44:16.129Z,2.4
2019-01-09T00:44:20.430Z,2.4
2019-01-09T00:44:24.725Z,2.41
2019-01-09T00:44:29.011Z,2.42
2019-01-09T00:44:33.310Z,2.42
2019-01-09T00:44:37.688Z,2.42
2019-01-09T00:44:41.988Z,2.41
2019-01-09T00:44:46.280Z,2.42
2019-01-09T00:44:50.476Z,2.41
2019-01-09T00:44:54.777Z,2.41
2019-01-09T00:44:58.969Z,2.41
2019-01-09T00:45:03.387Z,2.41
2019-01-09T00:45:07.583Z,2.4
2019-01-09T00:45:11.879Z,2.41
2019-01-09T00:45:16.179Z,2.41
2019-01-09T00:45:20.473Z,2.41
2019-01-09T00:45:24.759Z,2.4
2019-01-09T00:45:29.061Z,2.4
2019-01-09T00:45:33.358Z,2.4
2019-01-09T00:45:37.560Z,2.4
2019-01-09T00:45:41.875Z,2.4
2019-01-09T00:45:46.172Z,2.4
2019-01-09T00:45:50.469Z,2.4
2019-01-09T00:45:54.767Z,2.39
2019-01-09T00:45:59.057Z,2.4
2019-01-09T00:46:03.347Z,2.39
2019-01-09T00:46:07.630Z,2.39
2019-01-09T00:46:11.936Z,2.39
2019-01-09T00:46:16.226Z,2.38
2019-01-09T00:46:20.515Z,2.39
2019-01-09T00:46:24.711Z,2.38
2019-01-09T00:46:28.832Z,2.38
2019-01-09T00:46:33.128Z,2.38
2019-01-09T00:46:37.437Z,2.37
2019-01-09T00:46:41.732Z,2.38
2019-01-09T00:46:46.038Z,2.38
2019-01-09T00:46:50.344Z,2.37
2019-01-09T00:46:54.635Z,2.36
2019-01-09T00:46:58.926Z,2.36
2019-01-09T00:47:03.216Z,2.35
2019-01-09T00:47:07.503Z,2.36
2019-01-09T00:47:11.792Z,2.35
2019-01-09T00:47:15.911Z,2.35
2019-01-09T00:47:20.204Z,2.35
2019-01-09T00:47:24.493Z,2.34
2019-01-09T00:47:28.786Z,2.35
2019-01-09T00:47:33.073Z,2.35
2019-01-09T00:47:37.371Z,2.35
2019-01-09T00:47:41.729Z,2.35
2019-01-09T00:47:46.017Z,2.33
2019-01-09T00:47:50.309Z,2.35
2019-01-09T00:47:54.595Z,2.34
2019-01-09T00:47:58.882Z,2.35
2019-01-09T00:48:03.171Z,2.35
2019-01-09T00:48:07.462Z,2.35
2019-01-09T00:48:11.757Z,2.35
2019-01-09T00:48:16.103Z,2.34
2019-01-09T00:48:20.392Z,2.33
2019-01-09T00:48:24.714Z,2.35
2019-01-09T00:48:29.011Z,2.33
2019-01-09T00:48:33.104Z,2.35
2019-01-09T00:48:37.395Z,2.34
2019-01-09T00:48:41.686Z,2.34
2019-01-09T00:48:45.980Z,2.34
2019-01-09T00:48:50.277Z,2.33
2019-01-09T00:48:54.567Z,2.33
2019-01-09T00:48:58.863Z,2.33
2019-01-09T00:49:03.298Z,2.33
2019-01-09T00:49:07.592Z,2.33
2019-01-09T00:49:11.792Z,2.33
2019-01-09T00:49:16.076Z,2.34
2019-01-09T00:49:20.265Z,2.33
2019-01-09T00:49:24.460Z,2.33
2019-01-09T00:49:28.764Z,2.33
2019-01-09T00:49:33.054Z,2.33
2019-01-09T00:49:37.250Z,2.34
2019-01-09T00:49:41.543Z,2.33
2019-01-09T00:49:45.732Z,2.33
2019-01-09T00:49:50.018Z,2.34
2019-01-09T00:49:54.308Z,2.33
2019-01-09T00:49:58.596Z,2.33
2019-01-09T00:50:03.021Z,2.34
2019-01-09T00:50:07.311Z,2.34
2019-01-09T00:50:11.696Z,2.34
2019-01-09T00:50:15.899Z,2.35
2019-01-09T00:50:20.091Z,2.34
2019-01-09T00:50:24.389Z,2.34
2019-01-09T00:50:28.680Z,2.35
2019-01-09T00:50:32.970Z,2.34
2019-01-09T00:50:37.163Z,2.36
2019-01-09T00:50:41.465Z,2.35
2019-01-09T00:50:45.756Z,2.34
2019-01-09T00:50:50.044Z,2.35
2019-01-09T00:50:54.331Z,2.35
2019-01-09T00:50:58.529Z,2.36
2019-01-09T00:51:02.888Z,2.36
2019-01-09T00:51:07.078Z,2.34
2019-01-09T00:51:11.373Z,2.35
2019-01-09T00:51:15.664Z,2.36
2019-01-09T00:51:19.852Z,2.35
2019-01-09T00:51:24.138Z,2.35
2019-01-09T00:51:28.327Z,2.35
2019-01-09T00:51:32.618Z,2.34
2019-01-09T00:51:36.812Z,2.35
2019-01-09T00:51:40.999Z,2.35
2019-01-09T00:51:45.352Z,2.34
2019-01-09T00:51:49.546Z,2.35
2019-01-09T00:51:53.836Z,2.34
2019-01-09T00:51:58.029Z,2.36
2019-01-09T00:52:02.319Z,2.34
2019-01-09T00:52:06.617Z,2.35
2019-01-09T00:52:10.909Z,2.35
2019-01-09T00:52:15.017Z,2.35
2019-01-09T00:52:19.300Z,2.35
2019-01-09T00:52:23.591Z,2.35
2019-01-09T00:52:27.681Z,2.36
2019-01-09T00:52:31.878Z,2.35
2019-01-09T00:52:36.173Z,2.36
2019-01-09T00:52:40.271Z,2.35
2019-01-09T00:52:44.569Z,2.35
2019-01-09T00:52:48.854Z,2.36
2019-01-09T00:52:53.142Z,2.35
2019-01-09T00:52:57.480Z,2.35
2019-01-09T00:53:01.773Z,2.35
2019-01-09T00:53:06.021Z,2.36
2019-01-09T00:53:10.312Z,2.35
2019-01-09T00:53:14.614Z,2.36
2019-01-09T00:53:18.866Z,2.35
2019-01-09T00:53:23.161Z,2.34
2019-01-09T00:53:27.452Z,2.36
2019-01-09T00:53:31.646Z,2.33
2019-01-09T00:53:36.057Z,2.36
2019-01-09T00:53:40.347Z,2.35
2019-01-09T00:53:44.638Z,2.35
2019-01-09T00:53:48.748Z,2.35
2019-01-09T00:53:52.960Z,2.35
2019-01-09T00:53:57.262Z,2.35
2019-01-09T00:54:01.556Z,2.33
2019-01-09T00:54:05.856Z,2.35
2019-01-09T00:54:10.049Z,2.35
2019-01-09T00:54:14.348Z,2.34
2019-01-09T00:54:18.640Z,2.35
2019-01-09T00:54:22.943Z,2.35
2019-01-09T00:54:27.237Z,2.36
2019-01-09T00:54:31.335Z,2.35
2019-01-09T00:54:35.625Z,2.35
2019-01-09T00:54:39.923Z,2.35
2019-01-09T00:54:44.220Z,2.35
2019-01-09T00:54:48.512Z,2.35
2019-01-09T00:54:52.900Z,2.35
2019-01-09T00:54:57.199Z,2.36
2019-01-09T00:55:01.395Z,2.35
2019-01-09T00:55:05.603Z,2.36
2019-01-09T00:55:09.893Z,2.36
2019-01-09T00:55:14.184Z,2.36
2019-01-09T00:55:18.470Z,2.36
2019-01-09T00:55:22.668Z,2.36
2019-01-09T00:55:26.953Z,2.37
2019-01-09T00:55:31.243Z,2.36
2019-01-09T00:55:35.436Z,2.37
2019-01-09T00:55:39.548Z,2.37
2019-01-09T00:55:43.754Z,2.37
2019-01-09T00:55:48.040Z,2.38
2019-01-09T00:55:52.341Z,2.39
2019-01-09T00:55:56.634Z,2.38
2019-01-09T00:56:00.925Z,2.39
2019-01-09T00:56:05.226Z,2.38
2019-01-09T00:56:09.521Z,2.38
2019-01-09T00:56:13.813Z,2.39
2019-01-09T00:56:18.002Z,2.39
2019-01-09T00:56:22.201Z,2.39
2019-01-09T00:56:26.496Z,2.39
2019-01-09T00:56:30.695Z,2.39
2019-01-09T00:56:35.035Z,2.38
2019-01-09T00:56:39.325Z,2.38
2019-01-09T00:56:43.615Z,2.38
2019-01-09T00:56:47.903Z,2.39
2019-01-09T00:56:52.195Z,2.38
2019-01-09T00:56:56.502Z,2.38
2019-01-09T00:57:00.596Z,2.38
2019-01-09T00:57:04.889Z,2.38
2019-01-09T00:57:09.181Z,2.38
2019-01-09T00:57:13.474Z,2.38
2019-01-09T00:57:17.767Z,2.38
2019-01-09T00:57:22.069Z,2.37
2019-01-09T00:57:26.351Z,2.38